Time;durP1;ratioP1;P1;durP2;ratioP2;P2;SDS_P1;SDS_P2;PMS_P1;PMS_P2;Temp;Humidity;BMP_temperature;BMP_pressure;BME280_temperature;BME280_humidity;BME280_pressure;Samples;Min_cycle;Max_cycle;Signal;HPM_P1;HPM_P2
2022/09/20 00:01:56;;;;;;;10.58;7.05;;;;;;;9.77;75.24;100465.20;1628507;87;21268;-54
2022/09/20 00:05:03;;;;;;;9.05;6.90;;;;;;;9.76;75.22;100458.04;1628828;87;21224;-55
2022/09/20 00:08:11;;;;;;;10.88;7.25;;;;;;;9.74;75.17;100457.34;1628196;87;21267;-55
2022/09/20 00:11:20;;;;;;;11.12;6.30;;;;;;;9.71;75.12;100459.55;1628685;87;21284;-56
2022/09/20 00:14:26;;;;;;;10.13;7.03;;;;;;;9.67;75.06;100452.19;1628552;87;21240;-55
2022/09/20 00:17:35;;;;;;;10.85;6.97;;;;;;;9.65;75.10;100450.16;1631016;87;21753;-55
2022/09/20 00:20:41;;;;;;;9.28;6.50;;;;;;;9.64;75.20;100442.97;1627999;87;21244;-55
2022/09/20 00:23:46;;;;;;;13.65;6.55;;;;;;;9.63;75.25;100445.37;1608087;88;21503;-55
2022/09/20 00:26:54;;;;;;;10.68;6.22;;;;;;;9.62;75.30;100443.67;1628444;87;21260;-54
2022/09/20 00:30:00;;;;;;;12.88;6.50;;;;;;;9.57;75.23;100439.72;1628287;87;21298;-55
2022/09/20 00:33:06;;;;;;;9.23;6.10;;;;;;;9.50;75.08;100435.43;1628567;87;21263;-54
2022/09/20 00:36:11;;;;;;;7.65;6.25;;;;;;;9.45;75.08;100433.70;1628450;87;21550;-55
2022/09/20 00:39:18;;;;;;;8.08;6.37;;;;;;;9.44;75.21;100436.11;1592269;88;21377;-55
2022/09/20 00:42:23;;;;;;;9.53;6.10;;;;;;;9.41;75.23;100436.95;1628315;86;21276;-55
2022/09/20 00:45:36;;;;;;;7.33;6.03;;;;;;;9.35;75.16;100434.39;1630888;88;21189;-55
2022/09/20 00:48:42;;;;;;;7.63;5.97;;;;;;;9.31;75.21;100437.09;1603490;89;21316;-55
2022/09/20 00:51:49;;;;;;;9.38;6.50;;;;;;;9.31;75.37;100437.09;1587299;89;21263;-55
2022/09/20 00:54:55;;;;;;;9.10;6.75;;;;;;;9.31;75.53;100426.16;1628486;88;21252;-54
2022/09/20 00:58:00;;;;;;;8.10;5.65;;;;;;;9.33;75.61;100425.99;1628508;87;21280;-54
2022/09/20 01:01:06;;;;;;;10.20;6.67;;;;;;;9.30;75.56;100429.92;1628507;87;21284;-55
2022/09/20 01:04:13;;;;;;;11.83;5.95;;;;;;;9.28;75.52;100425.63;1628637;87;21240;-54
2022/09/20 01:07:24;;;;;;;8.40;6.53;;;;;;;9.26;75.47;100422.23;1611330;88;21402;-54
2022/09/20 01:10:30;;;;;;;8.40;6.03;;;;;;;9.22;75.46;100424.44;1628652;87;21224;-55
2022/09/20 01:13:36;;;;;;;7.83;6.03;;;;;;;9.23;75.71;100417.11;1628599;87;21252;-54
2022/09/20 01:16:42;;;;;;;8.13;6.00;;;;;;;9.23;75.88;100426.14;1607734;88;21248;-55
2022/09/20 01:20:15;;;;;;;7.20;5.90;;;;;;;9.21;75.88;100424.11;1628600;87;21259;-56
2022/09/20 01:23:40;;;;;;;10.35;6.95;;;;;;;9.15;75.72;100432.94;1628803;87;21256;-55
2022/09/20 01:27:02;;;;;;;8.13;6.42;;;;;;;9.09;75.74;100432.24;1628645;88;21260;-56
2022/09/20 01:30:17;;;;;;;9.55;6.53;;;;;;;9.05;75.79;100428.14;1628429;88;21224;-55
2022/09/20 01:33:45;;;;;;;8.65;6.33;;;;;;;8.97;75.69;100422.65;1627944;87;21232;-56
2022/09/20 01:37:21;;;;;;;11.03;6.60;;;;;;;8.92;75.73;100422.28;1628398;88;21224;-55
2022/09/20 01:40:41;;;;;;;9.63;5.92;;;;;;;8.87;75.73;100415.09;1628945;87;21287;-55
2022/09/20 01:44:07;;;;;;;8.08;6.15;;;;;;;8.80;75.68;100415.42;1628975;86;21291;-55
2022/09/20 01:47:34;;;;;;;8.33;5.97;;;;;;;8.77;75.79;100418.45;1627916;88;21287;-54
2022/09/20 01:51:04;;;;;;;10.85;5.87;;;;;;;8.73;75.85;100411.13;1628579;87;21208;-55
2022/09/20 01:54:26;;;;;;;8.73;6.08;;;;;;;8.69;75.85;100415.67;1628327;87;21251;-54
2022/09/20 01:57:46;;;;;;;12.73;5.65;;;;;;;8.62;75.80;100414.64;1623185;88;21264;-55
2022/09/20 02:01:23;;;;;;;9.08;5.83;;;;;;;8.57;75.81;100416.98;1628525;88;21277;-55
2022/09/20 02:04:39;;;;;;;8.75;6.15;;;;;;;8.53;75.86;100412.89;1628326;88;21304;-54
2022/09/20 02:07:59;;;;;;;7.62;5.95;;;;;;;8.46;75.73;100411.81;1608620;88;21236;-56
2022/09/20 02:11:18;;;;;;;8.80;6.03;;;;;;;8.38;75.69;100403.58;1628670;87;21279;-55
2022/09/20 02:14:40;;;;;;;9.03;6.47;;;;;;;8.35;75.81;100406.13;1628747;87;21260;-56
2022/09/20 02:18:43;;;;;;;6.78;5.90;;;;;;;8.36;76.03;100406.97;1628699;88;21239;-54
2022/09/20 02:22:15;;;;;;;8.13;5.90;;;;;;;8.34;76.12;100400.84;1573215;90;21222;-55
2022/09/20 02:25:41;;;;;;;7.60;5.95;;;;;;;8.32;76.23;100403.73;1585337;88;21221;-54
2022/09/20 02:29:18;;;;;;;7.42;6.12;;;;;;;8.30;76.36;100404.39;1607982;88;21486;-56
2022/09/20 02:32:50;;;;;;;10.90;6.22;;;;;;;8.29;76.40;100403.19;1628495;87;21296;-55
2022/09/20 02:36:20;;;;;;;10.13;6.15;;;;;;;8.27;76.43;100398.40;1631072;87;21296;-55
2022/09/20 02:39:30;;;;;;;8.58;5.60;;;;;;;8.24;76.40;100401.45;1628539;87;21256;-56
2022/09/20 02:43:24;;;;;;;7.53;5.85;;;;;;;8.20;76.30;100402.73;1628502;88;21380;-56
2022/09/20 02:47:21;;;;;;;9.00;5.87;;;;;;;8.16;76.27;100403.59;1631051;86;21244;-56
2022/09/20 02:50:46;;;;;;;9.15;5.47;;;;;;;8.12;76.30;100401.34;1631028;87;21252;-57
2022/09/20 02:54:03;;;;;;;7.30;5.78;;;;;;;8.11;76.43;100406.43;1630975;88;21233;-57
2022/09/20 02:57:25;;;;;;;6.25;5.42;;;;;;;8.08;76.41;100405.39;1631042;87;21271;-57
2022/09/20 03:00:35;;;;;;;7.37;5.03;;;;;;;8.04;76.38;100408.94;1630928;88;21240;-56
2022/09/20 03:04:10;;;;;;;7.97;5.65;;;;;;;8.03;76.39;100414.55;1630938;87;21256;-55
2022/09/20 03:07:49;;;;;;;7.90;5.65;;;;;;;7.98;76.35;100412.80;1630905;88;21227;-56
2022/09/20 03:11:35;;;;;;;9.13;5.67;;;;;;;7.95;76.40;100412.63;1631038;87;21216;-56
2022/09/20 03:14:48;;;;;;;11.18;5.85;;;;;;;7.94;76.44;100419.59;1630902;88;21235;-56
2022/09/20 03:18:23;;;;;;;8.70;5.30;;;;;;;7.92;76.53;100416.16;1631320;87;21280;-56
2022/09/20 03:22:07;;;;;;;7.65;5.60;;;;;;;7.93;76.61;100422.82;1646508;86;21228;-56
2022/09/20 03:25:54;;;;;;;10.32;7.60;;;;;;;7.93;76.68;100423.34;1642697;86;21224;-54
2022/09/20 03:29:07;;;;;;;11.08;7.30;;;;;;;7.93;76.76;100425.55;1655014;86;21224;-56
2022/09/20 03:32:19;;;;;;;10.55;7.80;;;;;;;7.94;76.85;100417.73;1654529;87;21200;-55
2022/09/20 03:36:10;;;;;;;14.93;8.10;;;;;;;7.96;76.86;100421.13;1654884;87;21209;-55
2022/09/20 03:39:58;;;;;;;9.78;7.03;;;;;;;7.95;76.84;100414.48;1631426;88;21256;-57
2022/09/20 03:43:09;;;;;;;8.70;5.83;;;;;;;7.96;76.88;100410.77;1631658;88;21204;-56
2022/09/20 03:46:25;;;;;;;9.45;6.08;;;;;;;7.98;77.02;100413.66;1632224;85;21212;-56
2022/09/20 03:49:47;;;;;;;7.67;5.95;;;;;;;8.02;77.22;100405.53;1631834;88;21279;-56
2022/09/20 03:53:28;;;;;;;10.13;6.58;;;;;;;8.09;77.40;100409.31;1631911;88;21326;-56
2022/09/20 03:56:57;;;;;;;10.70;5.83;;;;;;;8.16;77.54;100409.04;1632164;87;21745;-55
2022/09/20 04:00:32;;;;;;;10.98;5.95;;;;;;;8.22;77.57;100409.76;1631583;87;21694;-56
2022/09/20 04:04:28;;;;;;;10.85;6.00;;;;;;;8.27;77.58;100416.13;1632307;88;21268;-56
2022/09/20 04:07:44;;;;;;;11.43;5.50;;;;;;;8.34;77.71;100415.31;1554692;92;21267;-55
2022/09/20 04:11:17;;;;;;;10.45;5.87;;;;;;;8.45;77.85;100416.41;1636995;87;21315;-56
2022/09/20 04:14:54;;;;;;;14.98;6.03;;;;;;;8.56;77.95;100419.38;1632630;87;21260;-57
2022/09/20 04:18:43;;;;;;;10.55;5.78;;;;;;;8.71;77.89;100417.24;1849811;76;22714;-55
2022/09/20 04:22:06;;;;;;;7.67;5.85;;;;;;;8.70;77.92;100421.00;1774198;80;21171;-55
2022/09/20 04:25:16;;;;;;;;;;;;;;;8.78;77.92;100418.81;1774721;80;21331;-55
2022/09/20 04:28:32;;;;;;;11.45;6.50;;;;;;;8.80;77.75;100429.06;1772961;79;20233;-56
2022/09/20 04:31:43;;;;;;;12.00;6.78;;;;;;;8.81;77.66;100430.27;1773668;80;21327;-55
2022/09/20 04:38:40;;;;;;;9.45;6.50;;;;;;;8.89;77.67;100430.80;1756116;79;21260;-56
2022/09/20 04:42:06;;;;;;;8.85;6.70;;;;;;;8.94;77.59;100427.08;1771623;80;21324;-55
2022/09/20 04:45:32;;;;;;;8.83;5.87;;;;;;;8.97;77.56;100427.58;1772082;80;21189;-56
2022/09/20 04:49:09;;;;;;;6.83;5.72;;;;;;;9.02;77.62;100436.14;1772675;80;21221;-57
2022/09/20 04:52:27;;;;;;;9.18;5.45;;;;;;;9.11;77.76;100435.67;1767418;81;21201;-56
2022/09/20 04:56:07;;;;;;;11.38;5.10;;;;;;;9.24;77.79;100434.70;1769151;80;21230;-55
2022/09/20 04:59:18;;;;;;;10.18;5.22;;;;;;;9.33;77.77;100441.88;1765053;81;21225;-53
2022/09/20 05:02:43;;;;;;;9.13;5.25;;;;;;;9.46;77.83;100442.77;1756802;80;21714;-56
2022/09/20 05:06:14;;;;;;;;;;;;;;;9.57;77.92;100431.52;1756749;80;21268;-52
2022/09/20 05:09:57;;;;;;;14.40;5.60;;;;;;;9.72;78.03;100435.31;1740114;81;20215;-55
2022/09/20 05:13:37;;;;;;;10.48;6.35;;;;;;;9.86;78.17;100435.47;1744988;80;21303;-55
2022/09/20 05:17:08;;;;;;;10.93;5.50;;;;;;;10.01;78.24;100432.92;1749476;80;21193;-54
2022/09/20 05:20:45;;;;;;;9.03;5.60;;;;;;;10.12;78.15;100440.31;1767838;80;21229;-53
2022/09/20 05:24:01;;;;;;;9.00;6.22;;;;;;;10.21;78.10;100449.38;1768045;79;21381;-54
2022/09/20 05:27:45;;;;;;;15.58;5.72;;;;;;;10.30;78.07;100452.44;1761997;80;21169;-52
2022/09/20 05:31:06;;;;;;;13.13;5.85;;;;;;;10.47;78.01;100443.17;1847848;76;22243;-55
2022/09/20 05:34:41;;;;;;;12.58;10.58;;;;;;;10.48;78.14;100441.63;1755263;79;21221;-54
2022/09/20 05:38:11;;;;;;;16.73;7.15;;;;;;;10.58;78.13;100438.20;1776903;79;21196;-54
2022/09/20 05:42:03;;;;;;;12.00;6.67;;;;;;;10.66;78.12;100446.03;1775122;79;21609;-54
2022/09/20 05:45:58;;;;;;;12.43;7.40;;;;;;;10.78;78.24;100445.52;1793061;79;21235;-53
2022/09/20 05:49:24;;;;;;;12.25;6.10;;;;;;;10.94;78.33;100444.60;1763957;79;21234;-54
2022/09/20 05:53:03;;;;;;;9.33;6.25;;;;;;;11.10;78.42;100438.53;1783415;79;21192;-54
2022/09/20 05:56:35;;;;;;;9.38;5.20;;;;;;;11.23;78.52;100436.58;1803506;79;21795;-54
2022/09/20 06:00:27;;;;;;;10.70;6.97;;;;;;;11.39;78.58;100435.99;1801691;79;21257;-55
2022/09/20 06:03:58;;;;;;;9.80;7.62;;;;;;;11.50;78.54;100428.73;1802941;79;21267;-54
2022/09/20 06:07:31;;;;;;;12.05;6.75;;;;;;;11.59;78.41;100426.80;1802599;79;21768;-56
2022/09/20 06:11:03;;;;;;;8.75;6.45;;;;;;;11.66;78.39;100425.92;1802491;79;21263;-56
2022/09/20 06:14:34;;;;;;;8.03;5.37;;;;;;;11.78;78.37;100422.25;1803202;79;22069;-56
2022/09/20 06:17:45;;;;;;;9.25;5.37;;;;;;;11.85;78.29;100417.22;1803461;79;21232;-55
2022/09/20 06:21:03;;;;;;;7.75;5.03;;;;;;;11.95;78.29;100412.85;1720630;82;21245;-55
2022/09/20 06:24:12;;;;;;;7.65;4.80;;;;;;;12.05;78.28;100420.30;1801578;79;21228;-55
2022/09/20 06:27:36;;;;;;;8.75;5.28;;;;;;;12.17;78.37;100420.72;1774436;79;21196;-54
2022/09/20 06:30:47;;;;;;;7.05;4.83;;;;;;;12.31;78.41;100422.12;1776938;79;21817;-53
2022/09/20 06:34:07;;;;;;;8.00;4.90;;;;;;;12.49;78.49;100430.89;1676734;85;21249;-54
2022/09/20 06:44:28;;;;;;;8.78;4.62;;;;;;;12.92;78.48;100438.28;1772094;79;21370;-55
2022/09/20 06:47:34;;;;;;;10.65;5.62;;;;;;;13.06;78.48;100437.48;1771120;81;21765;-55
2022/09/20 06:50:45;;;;;;;6.83;4.65;;;;;;;13.18;78.47;100433.71;1739135;81;21221;-54
2022/09/20 06:54:10;;;;;;;7.75;4.70;;;;;;;13.29;78.45;100435.45;1771292;80;21200;-55
2022/09/20 06:57:20;;;;;;;8.83;5.30;;;;;;;13.37;78.37;100439.48;1781567;79;21188;-56
2022/09/20 07:00:26;;;;;;;7.78;4.30;;;;;;;13.46;78.34;100429.23;1771417;80;21244;-54
2022/09/20 07:03:32;;;;;;;8.88;5.28;;;;;;;13.54;78.28;100431.32;1760094;79;21232;-54
2022/09/20 07:06:40;;;;;;;6.42;4.50;;;;;;;13.65;78.23;100430.50;1787609;79;21239;-55
2022/09/20 07:10:14;;;;;;;10.10;4.55;;;;;;;13.76;78.26;100427.23;1799693;79;21240;-57
2022/09/20 07:13:26;;;;;;;7.10;4.50;;;;;;;13.88;78.26;100427.03;1786773;79;21275;-58
2022/09/20 07:16:43;;;;;;;8.05;4.90;;;;;;;14.13;78.38;100430.58;1870962;76;22269;-57
2022/09/20 07:19:50;;;;;;;7.12;3.83;;;;;;;14.21;78.40;100430.44;1791759;78;22133;-57
2022/09/20 07:23:14;;;;;;;7.25;3.58;;;;;;;14.37;78.40;100430.70;1780378;78;21358;-58
2022/09/20 07:26:34;;;;;;;5.62;3.67;;;;;;;14.50;78.29;100426.17;1764996;79;21233;-59
2022/09/20 07:29:46;;;;;;;5.35;3.67;;;;;;;14.62;78.18;100427.84;1760431;81;21580;-58
2022/09/20 07:33:08;;;;;;;4.67;3.12;;;;;;;14.78;78.16;100428.39;1752118;79;21218;-61
2022/09/20 07:36:24;;;;;;;4.95;3.08;;;;;;;14.99;78.19;100430.22;1756277;81;21710;-58
2022/09/20 07:43:05;;;;;;;11.38;8.00;;;;;;;15.33;78.06;100421.93;1747891;80;21238;-58
2022/09/20 07:46:00;;;;;;;28.40;19.67;;;;;;;15.52;77.96;100415.67;1793512;79;21270;-60
2022/09/20 07:48:54;;;;;;;9.83;5.70;;;;;;;15.67;77.91;100411.34;1800756;79;21305;-58
2022/09/20 07:51:43;;;;;;;6.45;3.30;;;;;;;15.82;77.92;100411.52;1786668;79;21284;-58
2022/09/20 07:54:38;;;;;;;6.65;4.10;;;;;;;16.01;77.85;100399.66;1758549;81;21233;-57
2022/09/20 07:57:26;;;;;;;3.90;2.50;;;;;;;16.21;77.82;100399.66;1759257;80;21208;-58
2022/09/20 08:00:25;;;;;;;4.12;2.10;;;;;;;16.39;77.74;100396.56;1795092;79;21222;-58
2022/09/20 08:03:45;;;;;;;3.67;2.20;;;;;;;16.55;77.57;100388.95;1786246;79;22064;-59
2022/09/20 08:07:19;;;;;;;4.72;2.12;;;;;;;16.66;77.36;100391.06;1748169;80;21728;-57
2022/09/20 08:10:54;;;;;;;5.90;2.50;;;;;;;16.75;77.22;100386.48;1768028;79;21283;-58
2022/09/20 08:14:01;;;;;;;6.05;2.00;;;;;;;16.89;77.18;100388.14;1765176;80;21236;-58
2022/09/20 08:17:09;;;;;;;3.67;2.10;;;;;;;17.03;77.17;100386.21;1788846;78;21816;-58
2022/09/20 08:20:17;;;;;;;4.30;2.08;;;;;;;17.19;77.15;100382.41;1729808;81;22019;-57
2022/09/20 08:23:23;;;;;;;2.62;1.70;;;;;;;17.36;77.09;100371.71;1756515;80;21378;-54
2022/09/20 08:26:33;;;;;;;2.42;1.92;;;;;;;17.53;77.02;100368.78;1817569;78;21459;-53
2022/09/20 08:29:41;;;;;;;3.12;2.20;;;;;;;17.66;76.97;100359.84;1768961;80;21881;-54
2022/09/20 08:32:48;;;;;;;4.70;1.90;;;;;;;17.75;76.78;100365.98;1752933;81;21749;-53
2022/09/20 08:35:57;;;;;;;7.12;2.22;;;;;;;17.87;76.80;100363.66;1777932;80;21225;-53
2022/09/20 08:39:02;;;;;;;2.25;1.60;;;;;;;17.99;76.68;100353.25;1758620;81;21220;-54
2022/09/20 08:42:32;;;;;;;3.58;2.10;;;;;;;18.05;76.54;100350.95;1744583;81;21192;-53
2022/09/20 08:45:40;;;;;;;5.25;1.95;;;;;;;18.11;76.48;100347.31;1753193;81;21792;-54
2022/09/20 08:48:46;;;;;;;2.45;1.50;;;;;;;18.11;76.19;100343.16;1723675;83;21248;-53
2022/09/20 08:51:56;;;;;;;3.15;1.82;;;;;;;18.08;75.89;100356.91;1745015;81;21272;-54
2022/09/20 08:55:02;;;;;;;4.15;1.80;;;;;;;17.95;75.73;100351.45;1723093;83;21283;-54
2022/09/20 08:58:09;;;;;;;6.03;2.25;;;;;;;17.93;75.77;100346.70;1749192;82;21594;-53
2022/09/20 09:01:20;;;;;;;3.08;2.05;;;;;;;17.92;75.70;100345.54;1752894;82;21192;-53
2022/09/20 09:04:30;;;;;;;5.58;2.10;;;;;;;17.93;75.76;100340.30;1741123;81;21299;-59
2022/09/20 09:07:36;;;;;;;3.80;1.98;;;;;;;17.92;75.70;100342.21;1742236;82;21503;-59
2022/09/20 09:10:45;;;;;;;3.05;1.77;;;;;;;17.89;75.55;100339.37;1722859;82;21762;-58
2022/09/20 09:14:47;;;;;;;2.55;1.50;;;;;;;17.84;75.41;100343.87;1727238;82;21280;-58
2022/09/20 09:17:20;;;;;;;4.10;1.60;;;;;;;17.81;75.51;100339.64;1723026;81;21216;-55
2022/09/20 09:20:28;;;;;;;3.77;1.60;;;;;;;17.82;75.42;100334.95;1787976;79;21755;-58
2022/09/20 09:23:35;;;;;;;2.92;1.65;;;;;;;17.81;75.41;100338.78;1801668;79;21213;-58
2022/09/20 09:26:47;;;;;;;2.37;1.70;;;;;;;17.84;75.32;100338.33;1799142;79;21230;-56
2022/09/20 09:30:01;;;;;;;2.75;1.80;;;;;;;17.85;75.26;100343.64;1784242;79;21277;-57
2022/09/20 09:33:36;;;;;;;4.42;1.65;;;;;;;17.87;75.20;100347.05;1718594;83;21221;-57
2022/09/20 09:36:42;;;;;;;2.62;1.40;;;;;;;17.83;75.09;100347.20;1714524;81;21198;-57
2022/09/20 09:39:48;;;;;;;4.85;1.42;;;;;;;17.74;75.00;100342.14;1674004;83;21252;-58
2022/09/20 09:43:08;;;;;;;5.22;1.40;;;;;;;17.64;74.90;100353.70;1723995;82;21650;-57
2022/09/20 09:46:29;;;;;;;2.45;1.30;;;;;;;17.51;74.91;100348.24;1741009;81;21808;-57
2022/09/20 09:49:39;;;;;;;4.75;1.30;;;;;;;17.40;74.97;100348.91;1748898;81;21180;-57
2022/09/20 09:52:44;;;;;;;2.92;1.67;;;;;;;17.27;74.93;100350.34;1711639;82;21202;-57
2022/09/20 09:56:22;;;;;;;2.17;1.32;;;;;;;17.16;74.98;100345.50;1698822;82;21757;-56
2022/09/20 09:59:48;;;;;;;1.67;1.30;;;;;;;17.10;75.00;100342.76;1706876;83;21367;-57
2022/09/20 10:03:32;;;;;;;2.00;1.32;;;;;;;16.98;75.00;100348.67;1788562;79;21182;-57
2022/09/20 10:06:51;;;;;;;2.08;1.37;;;;;;;16.83;74.96;100342.53;1779789;79;21183;-57
2022/09/20 10:10:17;;;;;;;1.87;1.15;;;;;;;16.72;75.03;100339.05;1762207;80;21221;-57
2022/09/20 10:13:43;;;;;;;4.83;1.50;;;;;;;16.62;74.95;100339.50;1753518;80;21232;-57
2022/09/20 10:17:27;;;;;;;3.90;1.47;;;;;;;16.51;74.96;100338.78;1772602;80;21570;-58
2022/09/20 10:21:02;;;;;;;;;;;;;;;16.47;75.05;100336.66;1772443;78;21671;-57
2022/09/20 10:24:38;;;;;;;5.08;1.57;;;;;;;16.48;75.18;100328.68;1748954;80;20205;-57
2022/09/20 10:27:56;;;;;;;2.80;1.40;;;;;;;16.50;75.33;100315.51;1781659;80;21696;-58
2022/09/20 10:31:36;;;;;;;2.42;1.35;;;;;;;16.55;75.48;100317.09;1792399;78;21200;-56
2022/09/20 10:35:22;;;;;;;3.72;1.20;;;;;;;16.62;75.53;100310.48;1771615;80;21236;-57
2022/09/20 10:38:41;;;;;;;2.27;1.20;;;;;;;16.70;75.54;100316.33;1731367;83;21212;-56
2022/09/20 10:45:37;;;;;;;1.67;1.02;;;;;;;16.85;75.39;100301.17;1761775;81;21185;-54
2022/09/20 10:49:13;;;;;;;1.07;0.98;;;;;;;16.88;75.27;100302.64;1764597;80;21694;-58
2022/09/20 10:52:59;;;;;;;3.33;1.45;;;;;;;16.73;74.86;100304.28;1683065;85;21260;-54
2022/09/20 10:56:48;;;;;;;2.25;1.20;;;;;;;16.55;74.87;100306.90;1641353;85;21260;-57
2022/09/20 11:00:07;;;;;;;3.02;1.15;;;;;;;16.44;74.89;100301.48;1631461;85;21236;-56
2022/09/20 11:03:53;;;;;;;2.33;1.30;;;;;;;16.32;74.80;100312.85;1625714;87;21260;-55
2022/09/20 11:07:21;;;;;;;1.57;1.12;;;;;;;16.19;74.75;100312.86;1646385;86;21770;-55
2022/09/20 11:10:35;;;;;;;5.95;1.70;;;;;;;16.09;74.78;100317.95;1634583;85;21598;-57
2022/09/20 11:13:57;;;;;;;3.25;1.52;;;;;;;15.98;74.79;100321.91;1654531;86;21758;-54
2022/09/20 11:17:14;;;;;;;3.25;1.85;;;;;;;15.84;74.78;100316.89;1654492;86;21317;-57
2022/09/20 11:20:36;;;;;;;5.05;2.77;;;;;;;15.70;74.70;100313.80;1653603;86;21851;-58
2022/09/20 11:24:12;;;;;;;42.62;24.52;;;;;;;15.56;74.70;100314.84;1653787;86;21614;-56
2022/09/20 11:27:33;;;;;;;4.40;2.20;;;;;;;15.44;74.85;100309.64;1635507;87;21230;-59
2022/09/20 11:30:41;;;;;;;6.95;2.83;;;;;;;15.33;74.96;100312.97;1635838;87;21243;-63
2022/09/20 11:33:53;;;;;;;8.40;2.80;;;;;;;15.19;74.87;100307.07;1618974;87;21246;-64
2022/09/20 11:37:02;;;;;;;8.43;5.15;;;;;;;15.08;74.92;100298.02;1637602;86;21231;-65
2022/09/20 11:40:33;;;;;;;11.40;7.53;;;;;;;14.98;74.99;100290.14;1610800;89;21326;-66
2022/09/20 11:43:43;;;;;;;5.05;3.05;;;;;;;14.88;75.03;100277.81;1610399;88;21404;-63
2022/09/20 11:47:15;;;;;;;9.10;3.10;;;;;;;14.91;75.40;100276.02;1628435;87;21412;-64
2022/09/20 11:50:59;;;;;;;5.25;3.00;;;;;;;15.01;75.61;100273.73;1637871;84;21300;-57
2022/09/20 11:54:34;;;;;;;4.45;2.30;;;;;;;15.22;75.92;100258.94;1635259;87;21316;-56
2022/09/20 11:57:40;;;;;;;4.30;1.50;;;;;;;15.47;76.09;100249.90;1637297;87;21472;-58
2022/09/20 12:00:53;;;;;;;1.87;1.20;;;;;;;15.68;75.93;100243.33;1642934;85;21219;-58
2022/09/20 12:03:59;;;;;;;1.65;1.35;;;;;;;15.82;75.82;100245.02;1679382;84;21351;-57
2022/09/20 12:07:44;;;;;;;2.00;1.40;;;;;;;15.92;75.67;100248.22;1649857;84;21334;-57
2022/09/20 12:10:51;;;;;;;4.67;2.98;;;;;;;15.98;75.49;100250.94;1665258;86;21250;-56
2022/09/20 12:14:04;;;;;;;2.37;1.30;;;;;;;16.02;75.33;100252.23;1651416;86;21211;-57
2022/09/20 12:17:16;;;;;;;3.55;1.42;;;;;;;16.01;75.14;100247.78;1647185;86;21353;-57
2022/09/20 12:20:44;;;;;;;3.62;1.20;;;;;;;15.98;74.93;100245.42;1664465;86;21226;-54
2022/09/20 12:24:06;;;;;;;48.63;42.75;;;;;;;15.95;74.92;100243.64;1665296;86;21242;-57
2022/09/20 12:27:34;;;;;;;8.25;4.37;;;;;;;15.96;75.02;100231.00;1665379;86;21858;-58
2022/09/20 12:30:42;;;;;;;3.85;1.90;;;;;;;15.89;74.81;100224.63;1665390;86;21226;-57
2022/09/20 12:34:17;;;;;;;2.95;1.62;;;;;;;15.79;74.78;100221.44;1654007;86;21257;-57
2022/09/20 12:37:27;;;;;;;3.55;1.60;;;;;;;15.75;74.85;100222.08;1661973;86;21197;-57
2022/09/20 12:40:32;;;;;;;2.52;1.52;;;;;;;15.72;74.90;100224.75;1658529;84;21294;-56
2022/09/20 12:43:35;;;;;;;5.60;2.42;;;;;;;15.73;74.92;100223.68;1651520;84;21257;-56
2022/09/20 12:46:38;;;;;;;4.75;2.10;;;;;;;15.73;74.83;100229.20;1678659;84;21795;-56
2022/09/20 12:53:22;;;;;;;3.05;1.77;;;;;;;15.71;74.81;100219.45;1636942;83;21202;-55
2022/09/20 12:56:33;;;;;;;6.80;2.12;;;;;;;15.70;74.91;100218.59;1638436;87;21330;-56
2022/09/20 12:59:37;;;;;;;4.95;1.98;;;;;;;15.70;74.92;100217.73;1592392;87;21220;-56
2022/09/20 13:03:05;;;;;;;5.08;2.33;;;;;;;15.71;75.06;100210.64;1619327;88;21233;-58
2022/09/20 13:06:22;;;;;;;3.40;1.80;;;;;;;15.71;75.11;100202.36;1651614;85;21305;-57
2022/09/20 13:09:28;;;;;;;3.20;2.00;;;;;;;15.71;75.10;100195.98;1686657;84;21290;-57
2022/09/20 13:12:35;;;;;;;6.10;2.20;;;;;;;15.70;75.06;100201.17;1656545;85;22017;-58
2022/09/20 13:15:41;;;;;;;5.50;2.12;;;;;;;15.71;75.12;100200.98;1639574;86;21215;-57
2022/09/20 13:18:48;;;;;;;7.58;2.58;;;;;;;15.70;75.12;100192.89;1647559;85;21266;-57
2022/09/20 13:22:16;;;;;;;3.95;2.10;;;;;;;15.66;75.16;100191.11;1603849;89;21754;-56
2022/09/20 13:25:23;;;;;;;5.20;2.58;;;;;;;15.62;75.08;100200.86;1614707;88;21276;-57
2022/09/20 13:28:43;;;;;;;4.15;2.12;;;;;;;15.58;75.06;100205.64;1624956;88;21256;-57
2022/09/20 13:31:50;;;;;;;7.05;2.27;;;;;;;15.53;75.12;100201.28;1642244;87;21225;-57
2022/09/20 13:35:14;;;;;;;5.35;2.33;;;;;;;15.46;75.10;100210.94;1633352;87;21281;-56
2022/09/20 13:38:21;;;;;;;4.53;1.90;;;;;;;15.43;75.21;100209.16;1643528;87;21301;-54
2022/09/20 13:41:26;;;;;;;5.47;2.30;;;;;;;15.37;75.19;100192.87;1636259;87;21718;-54
2022/09/20 13:44:33;;;;;;;4.15;2.02;;;;;;;15.30;75.24;100196.14;1639284;86;21824;-54
2022/09/20 13:47:40;;;;;;;4.17;2.33;;;;;;;15.28;75.29;100190.01;1624896;86;21228;-54
2022/09/20 13:50:46;;;;;;;4.65;2.12;;;;;;;15.24;75.36;100181.82;1639912;87;21205;-54
2022/09/20 13:53:52;;;;;;;3.65;2.40;;;;;;;15.23;75.34;100184.27;1620873;83;21216;-54
2022/09/20 13:57:01;;;;;;;5.67;2.35;;;;;;;15.17;75.34;100185.12;1638252;84;21291;-55
2022/09/20 14:00:07;;;;;;;4.08;2.33;;;;;;;15.15;75.44;100184.47;1679386;85;21236;-55
2022/09/20 14:03:17;;;;;;;5.20;2.40;;;;;;;15.12;75.38;100173.87;1688601;83;21239;-54
2022/09/20 14:06:42;;;;;;;3.02;2.10;;;;;;;15.09;75.41;100174.80;1662805;85;21225;-54
2022/09/20 14:09:50;;;;;;;2.90;2.08;;;;;;;15.03;75.42;100178.72;1657068;86;21766;-54
2022/09/20 14:12:56;;;;;;;4.60;2.40;;;;;;;15.01;75.48;100183.58;1688828;83;21216;-54
2022/09/20 14:16:03;;;;;;;4.15;2.40;;;;;;;15.00;75.49;100179.14;1683373;85;21212;-54
2022/09/20 14:19:09;;;;;;;4.00;2.30;;;;;;;14.98;75.52;100164.70;1683040;85;21251;-55
2022/09/20 14:22:14;;;;;;;6.20;2.10;;;;;;;14.97;75.52;100171.29;1666513;83;21559;-55
2022/09/20 14:25:26;;;;;;;3.92;2.08;;;;;;;14.96;75.58;100170.98;1693860;83;21264;-54
2022/09/20 14:28:31;;;;;;;4.83;2.12;;;;;;;14.93;75.57;100180.19;1638024;85;21262;-54
2022/09/20 14:31:39;;;;;;;4.72;2.42;;;;;;;14.90;75.58;100173.17;1638916;85;21245;-55
2022/09/20 14:34:46;;;;;;;3.55;2.10;;;;;;;14.88;75.57;100171.69;1649517;85;21249;-55
2022/09/20 14:38:00;;;;;;;4.90;2.37;;;;;;;14.85;75.60;100174.88;1668046;85;21248;-57
2022/09/20 14:41:07;;;;;;;6.40;2.08;;;;;;;14.81;75.64;100170.30;1663028;85;21243;-57
2022/09/20 14:44:39;;;;;;;4.15;2.40;;;;;;;14.78;75.62;100168.48;1682662;84;21220;-58
2022/09/20 14:47:48;;;;;;;4.58;2.30;;;;;;;14.71;75.69;100167.08;1646268;85;21215;-56
2022/09/20 14:51:15;;;;;;;4.05;2.60;;;;;;;14.66;75.75;100166.02;1618279;88;21788;-57
2022/09/20 14:54:35;;;;;;;6.90;2.15;;;;;;;14.61;75.77;100166.64;1663152;85;21308;-57
2022/09/20 14:57:42;;;;;;;6.35;2.65;;;;;;;14.56;75.82;100169.16;1693102;84;21240;-56
2022/09/20 15:01:05;;;;;;;6.40;2.30;;;;;;;14.50;75.81;100152.61;1624199;86;21230;-57
2022/09/20 15:04:17;;;;;;;4.10;2.35;;;;;;;14.45;75.88;100147.73;1642647;87;21226;-57
2022/09/20 15:07:23;;;;;;;4.62;2.35;;;;;;;14.41;75.93;100152.48;1643736;87;21276;-57
2022/09/20 15:10:30;;;;;;;3.37;2.25;;;;;;;14.36;75.98;100155.00;1637171;87;21261;-57
2022/09/20 15:13:36;;;;;;;6.67;2.67;;;;;;;14.31;76.00;100154.25;1645884;86;21853;-56
2022/09/20 15:16:42;;;;;;;6.65;2.50;;;;;;;14.28;76.06;100153.80;1657690;84;21221;-57
2022/09/20 15:19:48;;;;;;;7.40;2.70;;;;;;;14.24;76.09;100150.59;1663755;85;21811;-57
2022/09/20 15:22:56;;;;;;;4.70;2.55;;;;;;;14.19;76.08;100153.63;1649084;84;21292;-57
2022/09/20 15:26:02;;;;;;;5.87;2.90;;;;;;;14.14;76.11;100165.77;1665067;85;21220;-57
2022/09/20 15:29:07;;;;;;;5.20;2.87;;;;;;;14.10;76.16;100165.84;1652591;86;21253;-57
2022/09/20 15:32:17;;;;;;;6.30;3.12;;;;;;;14.06;76.23;100168.69;1628023;86;21525;-57
2022/09/20 15:35:22;;;;;;;5.15;3.08;;;;;;;14.01;76.27;100168.45;1652661;87;21285;-57
2022/09/20 15:38:28;;;;;;;6.28;2.83;;;;;;;14.00;76.33;100163.45;1653219;87;21586;-57
2022/09/20 15:41:37;;;;;;;8.18;2.85;;;;;;;13.98;76.37;100160.59;1652526;87;21253;-57
2022/09/20 15:44:43;;;;;;;4.22;3.00;;;;;;;13.96;76.39;100164.08;1670731;85;21233;-58
2022/09/20 15:47:50;;;;;;;6.92;3.98;;;;;;;13.91;76.39;100173.45;1655746;85;21830;-57